Time;durP1;ratioP1;P1;durP2;ratioP2;P2;SDS_P1;SDS_P2;PMS_P1;PMS_P2;Temp;Humidity;BMP_temperature;BMP_pressure;BME280_temperature;BME280_humidity;BME280_pressure;Samples;Min_cycle;Max_cycle;Signal;HPM_P1;HPM_P2
2021/07/22 00:01:28;;;;;;;13.57;8.50;;;;;;;12.89;99.88;102206.72;5074811;28;20351;-76
2021/07/22 00:03:54;;;;;;;15.25;9.00;;;;;;;12.90;100.00;102201.31;5067195;28;20032;-77
2021/07/22 00:06:19;;;;;;;12.63;8.43;;;;;;;12.91;99.52;102210.06;5086504;28;20503;-76
2021/07/22 00:08:45;;;;;;;13.98;8.50;;;;;;;12.91;99.21;102204.81;5050575;28;20040;-75
2021/07/22 00:11:10;;;;;;;12.48;8.48;;;;;;;12.90;99.62;102200.50;5068954;28;20056;-74
2021/07/22 00:13:36;;;;;;;14.05;9.02;;;;;;;12.94;99.74;102196.63;5051139;28;20031;-76
2021/07/22 00:16:02;;;;;;;13.95;8.95;;;;;;;12.96;99.93;102203.47;5053512;28;20396;-75
2021/07/22 00:18:27;;;;;;;13.77;9.30;;;;;;;13.01;99.76;102198.63;5054065;28;20039;-77
2021/07/22 00:20:53;;;;;;;12.93;8.57;;;;;;;13.08;100.00;102204.25;5087808;28;20507;-76
2021/07/22 00:23:18;;;;;;;13.25;9.30;;;;;;;13.18;100.00;102196.41;5069556;28;20032;-75
2021/07/22 00:25:44;;;;;;;15.70;9.65;;;;;;;13.21;100.00;102199.63;5050341;28;20070;-76
2021/07/22 00:28:09;;;;;;;11.55;8.60;;;;;;;13.22;100.00;102200.44;5065062;28;20043;-75
2021/07/22 00:30:35;;;;;;;10.85;8.73;;;;;;;13.27;100.00;102198.28;5073987;28;20481;-75
2021/07/22 00:33:02;;;;;;;12.13;8.77;;;;;;;13.30;100.00;102205.06;5084762;28;20027;-77
2021/07/22 00:35:28;;;;;;;14.25;8.10;;;;;;;13.28;99.88;102199.09;5058664;28;20095;-74
2021/07/22 00:37:55;;;;;;;14.50;8.45;;;;;;;13.37;99.94;102201.84;5065574;28;20473;-76
2021/07/22 00:40:21;;;;;;;14.07;8.85;;;;;;;13.51;100.00;102202.47;5070065;28;20092;-76
2021/07/22 00:43:01;;;;;;;11.82;8.90;;;;;;;13.53;100.00;102201.38;5039428;28;20441;-75
2021/07/22 00:45:28;;;;;;;10.98;8.40;;;;;;;13.50;100.00;102201.63;5089600;28;20113;-76
2021/07/22 00:47:55;;;;;;;15.23;9.07;;;;;;;13.50;100.00;102203.44;5053020;28;20063;-76
2021/07/22 00:50:21;;;;;;;12.98;9.25;;;;;;;13.43;100.00;102203.13;5072139;28;20031;-74
2021/07/22 00:52:46;;;;;;;15.07;9.93;;;;;;;13.29;100.00;102198.16;5084525;28;20125;-75
2021/07/22 00:55:22;;;;;;;16.98;8.82;;;;;;;13.20;100.00;102197.97;5089559;28;20059;-76
2021/07/22 00:57:48;;;;;;;16.45;10.07;;;;;;;13.15;100.00;102189.59;5060725;28;20039;-75
2021/07/22 01:00:14;;;;;;;15.18;9.50;;;;;;;13.10;100.00;102194.41;5073387;28;20028;-76
2021/07/22 01:02:42;;;;;;;14.55;10.23;;;;;;;13.01;100.00;102189.91;5055670;28;20143;-75
2021/07/22 01:05:09;;;;;;;17.33;9.80;;;;;;;12.91;100.00;102194.28;5090025;28;20081;-76
2021/07/22 01:07:37;;;;;;;16.00;9.35;;;;;;;12.81;100.00;102187.13;5056450;28;20047;-74
2021/07/22 01:10:05;;;;;;;18.50;10.80;;;;;;;12.80;100.00;102181.97;5057058;28;20026;-75
2021/07/22 01:12:31;;;;;;;14.15;10.15;;;;;;;12.75;100.00;102184.16;5055670;28;20105;-76
2021/07/22 01:14:56;;;;;;;17.58;11.23;;;;;;;12.73;100.00;102193.97;5058800;27;20550;-75
2021/07/22 01:17:48;;;;;;;19.08;11.48;;;;;;;12.70;100.00;102186.34;5094771;28;20721;-75
2021/07/22 01:20:18;;;;;;;18.23;11.35;;;;;;;12.62;100.00;102198.31;5071216;28;20027;-75
2021/07/22 01:22:46;;;;;;;18.40;10.65;;;;;;;12.56;100.00;102188.25;5077551;28;20269;-74
2021/07/22 01:25:13;;;;;;;16.85;10.55;;;;;;;12.57;100.00;102194.38;5057066;28;20659;-75
2021/07/22 01:27:40;;;;;;;16.85;10.55;;;;;;;12.56;100.00;102190.91;5057143;28;20036;-74
2021/07/22 01:30:09;;;;;;;16.90;10.95;;;;;;;12.55;100.00;102183.16;5075226;28;20035;-73
2021/07/22 01:32:37;;;;;;;19.27;11.02;;;;;;;12.50;100.00;102178.25;5070486;28;20040;-74
2021/07/22 01:35:03;;;;;;;19.55;10.95;;;;;;;12.51;100.00;102179.06;5069755;28;20031;-74
2021/07/22 01:37:29;;;;;;;20.58;11.68;;;;;;;12.48;100.00;102177.53;5086871;28;20024;-74
2021/07/22 01:39:56;;;;;;;16.85;11.07;;;;;;;12.49;100.00;102186.25;5075426;28;20034;-75
2021/07/22 01:42:22;;;;;;;20.00;11.50;;;;;;;12.44;100.00;102181.38;5090040;28;20032;-74
2021/07/22 01:44:48;;;;;;;16.85;10.98;;;;;;;12.42;100.00;102178.88;5084009;28;20632;-75
2021/07/22 01:47:14;;;;;;;17.27;11.52;;;;;;;12.42;100.00;102186.75;5071466;28;20036;-75
2021/07/22 01:49:40;;;;;;;18.75;11.38;;;;;;;12.39;100.00;102184.38;5089780;28;20031;-75
2021/07/22 01:52:06;;;;;;;17.58;12.05;;;;;;;12.36;100.00;102182.00;5057737;28;20043;-76
2021/07/22 01:54:33;;;;;;;18.33;11.65;;;;;;;12.34;100.00;102175.16;5077296;27;20042;-74
2021/07/22 01:57:00;;;;;;;18.30;12.90;;;;;;;12.31;100.00;102178.06;5060623;28;20032;-76
2021/07/22 01:59:35;;;;;;;20.27;12.45;;;;;;;12.23;100.00;102176.88;5070908;28;20035;-75
2021/07/22 02:02:05;;;;;;;18.02;12.07;;;;;;;12.17;100.00;102171.28;5070373;28;20040;-74
2021/07/22 02:04:34;;;;;;;18.63;11.68;;;;;;;12.19;100.00;102175.47;5073761;28;20067;-76
2021/07/22 02:07:00;;;;;;;17.83;12.10;;;;;;;12.18;100.00;102178.19;5056389;28;20046;-75
2021/07/22 02:09:27;;;;;;;18.25;12.88;;;;;;;12.19;100.00;102172.00;5063272;28;20067;-75
2021/07/22 02:11:56;;;;;;;20.55;12.35;;;;;;;12.10;100.00;102173.56;5057412;28;20139;-74
2021/07/22 02:14:23;;;;;;;16.00;11.95;;;;;;;12.08;100.00;102180.72;5060563;28;20512;-74
2021/07/22 02:16:52;;;;;;;18.35;11.70;;;;;;;12.02;100.00;102168.06;5081786;28;20580;-76
2021/07/22 02:19:17;;;;;;;16.83;12.60;;;;;;;12.08;100.00;102183.34;5070123;28;20154;-76
2021/07/22 02:21:44;;;;;;;21.17;12.90;;;;;;;12.06;100.00;102183.47;5071930;28;20704;-76
2021/07/22 02:24:13;;;;;;;17.10;11.52;;;;;;;12.03;100.00;102181.06;5088979;28;20027;-76
2021/07/22 02:26:49;;;;;;;17.52;12.43;;;;;;;12.01;100.00;102183.00;5071920;28;20038;-75
2021/07/22 02:29:16;;;;;;;20.80;13.52;;;;;;;12.01;100.00;102175.09;5071940;27;20100;-75
2021/07/22 02:31:41;;;;;;;20.63;12.40;;;;;;;12.00;100.00;102170.81;5070220;28;20032;-76
2021/07/22 02:34:11;;;;;;;19.83;12.93;;;;;;;12.01;100.00;102179.53;5078076;28;20042;-77
2021/07/22 02:36:37;;;;;;;20.15;13.85;;;;;;;11.97;100.00;102186.00;5067001;28;20039;-76
2021/07/22 02:39:08;;;;;;;20.40;13.85;;;;;;;11.91;100.00;102184.69;5071899;28;20457;-75
2021/07/22 02:41:35;;;;;;;23.77;13.98;;;;;;;11.87;100.00;102176.16;5089350;28;20472;-75
2021/07/22 02:44:04;;;;;;;23.52;13.27;;;;;;;11.89;100.00;102173.41;5072403;28;20039;-76
2021/07/22 02:46:35;;;;;;;18.65;13.43;;;;;;;11.93;100.00;102176.69;5069553;28;20104;-75
2021/07/22 02:49:01;;;;;;;21.65;13.40;;;;;;;11.93;100.00;102171.41;5087283;28;20023;-75
2021/07/22 02:51:32;;;;;;;24.20;14.30;;;;;;;11.83;100.00;102166.84;5071067;28;20874;-77
2021/07/22 02:53:59;;;;;;;22.05;13.40;;;;;;;11.80;100.00;102169.72;5088107;28;20065;-76
2021/07/22 02:56:26;;;;;;;23.05;13.52;;;;;;;11.75;100.00;102163.13;5070747;28;20032;-76
2021/07/22 02:58:57;;;;;;;21.17;14.27;;;;;;;11.72;100.00;102172.09;5063179;28;20031;-76
2021/07/22 03:01:24;;;;;;;21.17;14.05;;;;;;;11.64;100.00;102174.47;5087855;28;20035;-76
2021/07/22 03:03:50;;;;;;;24.27;14.18;;;;;;;11.62;100.00;102177.25;5070793;28;20039;-75
2021/07/22 03:06:18;;;;;;;18.88;13.15;;;;;;;11.62;100.00;102184.28;5051289;28;20674;-76
2021/07/22 03:08:51;;;;;;;21.52;14.13;;;;;;;11.63;100.00;102196.47;5049528;28;20038;-76
2021/07/22 03:11:19;;;;;;;17.27;12.05;;;;;;;11.66;100.00;102188.34;5062454;28;20032;-75
2021/07/22 03:13:46;;;;;;;19.63;13.35;;;;;;;11.69;100.00;102185.47;5067455;28;20035;-73
2021/07/22 03:16:12;;;;;;;16.73;12.05;;;;;;;11.70;100.00;102189.78;5052095;28;20036;-76
2021/07/22 03:18:56;;;;;;;17.17;11.15;;;;;;;11.62;100.00;102192.16;5088791;28;20029;-77
2021/07/22 03:21:22;;;;;;;17.67;11.15;;;;;;;11.63;100.00;102191.22;5056014;28;20047;-76
2021/07/22 03:24:07;;;;;;;25.25;11.07;;;;;;;11.60;100.00;102194.91;5084198;28;20077;-74
2021/07/22 03:26:33;;;;;;;19.13;12.02;;;;;;;11.59;100.00;102198.50;5066562;28;20086;-75
2021/07/22 03:29:01;;;;;;;18.27;11.88;;;;;;;11.58;100.00;102193.34;5069338;28;20036;-75
2021/07/22 03:31:29;;;;;;;23.17;12.23;;;;;;;11.56;100.00;102187.38;5070298;28;20031;-76
2021/07/22 03:34:07;;;;;;;22.40;12.63;;;;;;;11.50;100.00;102191.31;5077993;28;20035;-77
2021/07/22 03:36:37;;;;;;;20.05;12.18;;;;;;;11.45;100.00;102202.19;5070931;28;20035;-76
2021/07/22 03:39:13;;;;;;;17.65;11.95;;;;;;;11.45;100.00;102190.81;5071842;28;20039;-75
2021/07/22 03:41:48;;;;;;;22.67;13.00;;;;;;;11.54;100.00;102190.13;5086213;28;20036;-77
2021/07/22 03:44:29;;;;;;;23.60;14.23;;;;;;;11.59;100.00;102190.59;5065570;28;20028;-77
2021/07/22 03:46:56;;;;;;;20.33;13.30;;;;;;;11.68;100.00;102191.69;5070021;28;20061;-77
2021/07/22 03:49:24;;;;;;;18.63;12.80;;;;;;;11.75;100.00;102195.50;5045877;28;20115;-76
2021/07/22 03:51:54;;;;;;;19.98;12.68;;;;;;;11.79;100.00;102198.75;5069091;28;20661;-75
2021/07/22 03:54:24;;;;;;;17.23;11.88;;;;;;;11.82;100.00;102198.50;5054563;28;20078;-76
2021/07/22 03:56:50;;;;;;;18.50;12.43;;;;;;;11.87;100.00;102194.56;5071508;28;20023;-76
2021/07/22 03:59:20;;;;;;;22.98;12.02;;;;;;;11.96;100.00;102192.19;5072445;28;20515;-76
2021/07/22 04:01:47;;;;;;;22.40;12.35;;;;;;;12.04;100.00;102188.03;5068772;28;20032;-76
2021/07/22 04:04:17;;;;;;;19.42;12.80;;;;;;;12.21;100.00;102191.13;5055831;28;20423;-75
2021/07/22 04:06:45;;;;;;;19.35;12.23;;;;;;;12.27;100.00;102177.47;5072636;28;20100;-75
2021/07/22 04:09:31;;;;;;;17.52;12.10;;;;;;;12.29;100.00;102186.06;5091325;28;20040;-75
2021/07/22 04:12:15;;;;;;;21.63;12.95;;;;;;;12.30;100.00;102184.28;5056034;28;20233;-75
2021/07/22 04:15:07;;;;;;;24.50;12.90;;;;;;;12.34;100.00;102191.81;5071840;28;20138;-76
2021/07/22 04:17:59;;;;;;;18.10;12.33;;;;;;;12.38;100.00;102197.66;5042968;28;20563;-77
2021/07/22 04:20:54;;;;;;;24.00;14.05;;;;;;;12.48;100.00;102197.75;5056663;28;20410;-76
2021/07/22 04:23:31;;;;;;;25.42;16.00;;;;;;;12.53;100.00;102195.59;5055035;28;20136;-76
2021/07/22 04:26:05;;;;;;;22.10;14.88;;;;;;;12.58;100.00;102190.78;5091345;28;20120;-76
2021/07/22 04:28:38;;;;;;;;;;;;;;;12.63;100.00;102199.16;5059514;28;20028;-76
2021/07/22 04:31:05;;;;;;;27.08;15.73;;;;;;;12.68;100.00;102191.72;5053578;28;20012;-76
2021/07/22 04:33:49;;;;;;;27.00;16.35;;;;;;;12.74;100.00;102185.13;5065018;28;20682;-76
2021/07/22 04:36:34;;;;;;;24.95;15.35;;;;;;;12.79;100.00;102186.41;5074381;28;20039;-77
2021/07/22 04:39:18;;;;;;;24.95;15.85;;;;;;;12.85;100.00;102177.19;5091935;28;20423;-75
2021/07/22 04:42:02;;;;;;;24.48;15.00;;;;;;;12.94;100.00;102183.47;5088086;28;20082;-76
2021/07/22 04:44:46;;;;;;;28.15;16.77;;;;;;;13.04;100.00;102179.13;5080848;28;20034;-75
2021/07/22 04:47:41;;;;;;;29.50;17.33;;;;;;;13.13;100.00;102185.41;5095074;28;20389;-74
2021/07/22 04:50:25;;;;;;;26.42;16.83;;;;;;;13.17;100.00;102185.03;5093525;28;20024;-76
2021/07/22 04:53:06;;;;;;;34.90;19.65;;;;;;;13.30;100.00;102186.63;5071716;28;20024;-76
2021/07/22 04:55:40;;;;;;;31.45;18.60;;;;;;;13.39;100.00;102184.09;5059952;28;20516;-77
2021/07/22 04:58:06;;;;;;;40.05;22.42;;;;;;;13.50;100.00;102182.34;5069617;28;20040;-77
2021/07/22 05:00:36;;;;;;;34.88;21.05;;;;;;;13.60;100.00;102185.88;5090806;28;20533;-76
2021/07/22 05:03:02;;;;;;;31.35;18.80;;;;;;;13.64;100.00;102189.94;5059670;28;20146;-77
2021/07/22 05:05:35;;;;;;;35.30;19.00;;;;;;;13.65;100.00;102194.22;5075395;28;20100;-75
2021/07/22 05:08:19;;;;;;;29.60;18.33;;;;;;;13.68;100.00;102196.59;5091566;28;20062;-72
2021/07/22 05:10:51;;;;;;;31.52;18.70;;;;;;;13.75;100.00;102194.25;5075666;28;20043;-74
2021/07/22 05:13:22;;;;;;;30.95;19.60;;;;;;;13.88;100.00;102194.03;5074457;28;20035;-75
2021/07/22 05:16:07;;;;;;;31.50;20.00;;;;;;;14.06;100.00;102196.91;5084937;28;20512;-76
2021/07/22 05:18:53;;;;;;;28.58;17.88;;;;;;;14.20;100.00;102194.72;5088692;28;20190;-75
2021/07/22 05:21:39;;;;;;;31.92;19.00;;;;;;;14.30;100.00;102200.03;5075427;28;20042;-76
2021/07/22 05:24:22;;;;;;;30.02;18.88;;;;;;;14.34;100.00;102201.41;5087282;28;20031;-75
2021/07/22 05:26:55;;;;;;;32.45;18.77;;;;;;;14.38;100.00;102194.88;5066813;28;20036;-74
2021/07/22 05:29:40;;;;;;;31.30;19.17;;;;;;;14.35;100.00;102195.19;5090186;27;20115;-75
2021/07/22 05:32:34;;;;;;;22.80;14.60;;;;;;;14.33;99.56;102189.16;5069759;28;20031;-76
2021/07/22 05:35:18;;;;;;;27.13;16.33;;;;;;;14.35;98.24;102191.69;5073768;28;20043;-76
2021/07/22 05:38:02;;;;;;;23.05;15.40;;;;;;;14.37;98.78;102195.88;5090165;28;20130;-76
2021/07/22 05:40:28;;;;;;;23.45;14.90;;;;;;;14.38;97.76;102186.16;5064794;28;20501;-76
2021/07/22 05:42:54;;;;;;;23.50;14.52;;;;;;;14.54;96.97;102198.78;5056511;28;20054;-76
2021/07/22 05:45:20;;;;;;;21.55;14.32;;;;;;;14.70;96.51;102193.84;5062958;28;20035;-77
2021/07/22 05:47:45;;;;;;;24.38;15.45;;;;;;;14.86;95.70;102188.03;5054063;28;20039;-76
2021/07/22 05:50:11;;;;;;;23.40;15.10;;;;;;;14.90;94.43;102199.97;5070175;28;20063;-77
2021/07/22 05:52:37;;;;;;;24.38;14.63;;;;;;;14.91;94.59;102190.25;5071156;28;20047;-77
2021/07/22 05:55:03;;;;;;;23.30;15.57;;;;;;;14.95;94.86;102197.72;5072368;27;20539;-76
2021/07/22 05:57:29;;;;;;;21.88;14.93;;;;;;;15.10;94.53;102202.59;5090416;28;20400;-75
2021/07/22 05:59:55;;;;;;;26.75;14.52;;;;;;;15.22;92.86;102198.00;5065516;28;20500;-75
2021/07/22 06:02:20;;;;;;;23.17;13.52;;;;;;;15.40;91.82;102198.94;5052780;28;20207;-75
2021/07/22 06:04:47;;;;;;;23.25;13.95;;;;;;;15.47;91.77;102201.84;5081180;28;20477;-75
2021/07/22 06:07:13;;;;;;;19.98;13.05;;;;;;;15.68;89.48;102201.66;5073569;28;20194;-76
2021/07/22 06:09:38;;;;;;;21.55;12.73;;;;;;;15.79;89.06;102196.22;5073211;28;20122;-75
2021/07/22 06:12:04;;;;;;;18.60;13.05;;;;;;;16.00;87.59;102195.16;5055668;28;20737;-76
2021/07/22 06:14:30;;;;;;;18.40;11.48;;;;;;;16.05;87.16;102201.66;5090272;28;20042;-74
2021/07/22 06:16:55;;;;;;;25.90;12.20;;;;;;;15.98;85.24;102197.94;5052633;28;20040;-74
2021/07/22 06:19:22;;;;;;;16.95;10.90;;;;;;;15.98;85.90;102192.63;5104248;27;20034;-75
2021/07/22 06:21:47;;;;;;;21.58;11.57;;;;;;;15.99;84.22;102194.28;5090127;28;20046;-74
2021/07/22 06:24:13;;;;;;;16.38;10.10;;;;;;;15.97;84.72;102185.66;5056413;28;20032;-75
2021/07/22 06:26:38;;;;;;;17.52;10.02;;;;;;;16.13;84.16;102190.34;5056488;28;20655;-75
2021/07/22 06:29:06;;;;;;;17.63;10.02;;;;;;;16.18;81.88;102196.03;5074306;27;20046;-74
2021/07/22 06:31:32;;;;;;;15.73;9.40;;;;;;;16.33;80.42;102183.94;5074643;28;20055;-74
2021/07/22 06:33:57;;;;;;;17.55;9.45;;;;;;;16.49;81.25;102188.56;5056127;28;20082;-74
2021/07/22 06:36:24;;;;;;;14.70;9.23;;;;;;;16.53;80.15;102184.63;5088957;28;20383;-76
2021/07/22 06:39:02;;;;;;;12.65;8.50;;;;;;;16.72;79.54;102199.53;5067679;28;20462;-74
2021/07/22 06:41:28;;;;;;;13.10;8.95;;;;;;;16.69;80.45;102189.25;5054365;28;20035;-76
2021/07/22 06:43:53;;;;;;;15.07;9.38;;;;;;;16.66;79.10;102191.38;5051757;28;20039;-74
2021/07/22 06:46:19;;;;;;;10.15;7.78;;;;;;;16.61;79.72;102191.81;5085474;28;20035;-75
2021/07/22 06:48:47;;;;;;;14.90;9.18;;;;;;;16.73;78.62;102193.28;5072324;28;20031;-75
2021/07/22 06:51:13;;;;;;;13.05;8.13;;;;;;;16.78;78.44;102191.97;5072033;28;20126;-75
2021/07/22 06:53:38;;;;;;;12.38;7.75;;;;;;;16.70;78.74;102190.91;5088749;28;20723;-75
2021/07/22 06:56:04;;;;;;;12.73;7.88;;;;;;;16.70;79.09;102200.69;5072141;28;20024;-76
2021/07/22 06:58:30;;;;;;;14.55;7.10;;;;;;;16.69;77.29;102193.75;5085436;28;20046;-76
2021/07/22 07:00:55;;;;;;;12.50;8.00;;;;;;;16.69;78.24;102199.88;5086466;28;20035;-75
2021/07/22 07:03:21;;;;;;;11.65;7.47;;;;;;;16.84;77.76;102196.69;5086361;28;20027;-76
2021/07/22 07:05:47;;;;;;;11.30;7.38;;;;;;;17.04;76.24;102189.41;5070805;28;20046;-75
2021/07/22 07:08:13;;;;;;;13.45;6.88;;;;;;;17.34;78.34;102195.28;5089476;28;20042;-75
2021/07/22 07:10:38;;;;;;;12.52;6.53;;;;;;;17.62;73.69;102195.94;5053867;28;20035;-76
2021/07/22 07:13:04;;;;;;;9.60;4.50;;;;;;;17.98;71.87;102195.78;5055650;28;20063;-76
2021/07/22 07:15:29;;;;;;;11.30;5.70;;;;;;;18.22;76.83;102203.03;5071835;28;20381;-76
2021/07/22 07:17:57;;;;;;;8.25;5.40;;;;;;;18.31;73.10;102201.19;5070622;28;20094;-75
2021/07/22 07:20:23;;;;;;;8.07;4.25;;;;;;;18.36;72.93;102209.53;5054148;28;20554;-74
2021/07/22 07:22:50;;;;;;;7.47;3.67;;;;;;;18.59;65.85;102199.94;5071973;28;20044;-75
2021/07/22 07:25:16;;;;;;;9.57;5.00;;;;;;;18.54;66.58;102199.59;5071691;28;20483;-75
2021/07/22 07:27:42;;;;;;;8.40;4.20;;;;;;;18.69;65.51;102199.78;5067508;28;20064;-75
2021/07/22 07:30:08;;;;;;;3.95;3.05;;;;;;;18.54;64.74;102198.78;5087954;28;20034;-74
2021/07/22 07:32:34;;;;;;;7.95;3.58;;;;;;;18.35;67.91;102205.22;5067771;28;20499;-76
2021/07/22 07:35:00;;;;;;;7.40;3.95;;;;;;;18.36;64.78;102199.72;5051273;28;20228;-76
2021/07/22 07:37:26;;;;;;;6.13;3.70;;;;;;;18.18;65.11;102189.22;5079206;28;20110;-74
2021/07/22 07:39:51;;;;;;;9.73;3.30;;;;;;;18.34;63.20;102199.06;5071773;28;20036;-73
2021/07/22 07:42:17;;;;;;;5.13;2.90;;;;;;;18.48;63.43;102194.94;5088983;28;20615;-74
2021/07/22 07:44:42;;;;;;;6.57;3.20;;;;;;;18.63;67.09;102195.97;5071102;28;20039;-75
2021/07/22 07:47:10;;;;;;;9.25;3.28;;;;;;;18.66;64.08;102208.91;5088666;28;20030;-76
2021/07/22 07:49:36;;;;;;;7.50;2.70;;;;;;;18.62;61.91;102196.94;5088383;28;20040;-75
2021/07/22 07:52:02;;;;;;;6.05;2.75;;;;;;;18.71;62.06;102200.47;5071145;28;20193;-74
2021/07/22 07:54:27;;;;;;;9.32;3.33;;;;;;;18.73;63.15;102202.94;5072953;28;20565;-75
2021/07/22 07:56:53;;;;;;;5.53;3.05;;;;;;;18.72;61.62;102204.75;5055320;28;20535;-74
2021/07/22 07:59:18;;;;;;;9.43;2.95;;;;;;;18.77;61.59;102205.09;5089011;28;20377;-74
2021/07/22 08:01:44;;;;;;;4.60;3.00;;;;;;;18.73;64.16;102211.75;5076050;28;20028;-76
2021/07/22 08:04:10;;;;;;;9.15;3.33;;;;;;;18.80;65.17;102215.44;5071823;28;20059;-76
2021/07/22 08:06:36;;;;;;;5.47;2.92;;;;;;;18.71;63.22;102219.06;5085401;28;20497;-76
2021/07/22 08:09:02;;;;;;;6.43;3.65;;;;;;;18.46;62.95;102207.56;5059378;28;20031;-76
2021/07/22 08:11:28;;;;;;;10.05;3.25;;;;;;;18.54;67.19;102209.41;5055592;28;20047;-76
2021/07/22 08:13:53;;;;;;;5.75;3.28;;;;;;;18.71;67.12;102211.09;5064918;28;20039;-75
2021/07/22 08:16:19;;;;;;;5.35;3.50;;;;;;;18.75;66.94;102206.28;5075143;28;20472;-75
2021/07/22 08:18:49;;;;;;;9.27;3.80;;;;;;;18.66;63.87;102205.44;5075399;28;20122;-74
2021/07/22 08:21:14;;;;;;;7.68;3.20;;;;;;;18.56;65.28;102210.06;5075611;28;20034;-74
2021/07/22 08:23:41;;;;;;;9.23;3.22;;;;;;;18.62;66.05;102202.25;5055244;28;20027;-75
2021/07/22 08:26:07;;;;;;;7.03;3.35;;;;;;;18.72;63.76;102204.75;5083013;28;20112;-77
2021/07/22 08:28:33;;;;;;;7.65;3.80;;;;;;;18.79;67.29;102207.59;5071709;28;20138;-76
2021/07/22 08:30:59;;;;;;;7.68;3.30;;;;;;;18.85;62.91;102199.84;5069612;28;20457;-73
2021/07/22 08:33:27;;;;;;;6.72;3.50;;;;;;;18.80;63.97;102198.66;5065433;28;20516;-73
2021/07/22 08:35:52;;;;;;;6.38;3.72;;;;;;;18.71;66.50;102202.28;5075033;28;20053;-75
2021/07/22 08:38:18;;;;;;;7.57;3.40;;;;;;;18.74;67.01;102200.13;5059165;28;20047;-76
2021/07/22 08:40:44;;;;;;;7.60;4.00;;;;;;;18.94;65.89;102199.84;5077439;28;20077;-74
2021/07/22 08:43:09;;;;;;;4.75;3.40;;;;;;;19.18;63.74;102194.50;5047771;28;20401;-76
2021/07/22 08:45:35;;;;;;;6.32;3.70;;;;;;;19.27;64.07;102198.00;5074593;28;20031;-75
2021/07/22 08:48:00;;;;;;;8.55;4.05;;;;;;;19.43;61.96;102187.28;5109767;28;20028;-75
2021/07/22 08:50:27;;;;;;;7.20;3.72;;;;;;;19.40;61.39;102192.97;5056898;28;20063;-75
2021/07/22 08:52:52;;;;;;;7.28;4.68;;;;;;;19.42;64.49;102187.44;5055386;28;20020;-76
2021/07/22 08:55:19;;;;;;;7.00;3.60;;;;;;;19.36;62.88;102191.63;5057149;28;20035;-76
2021/07/22 08:57:45;;;;;;;8.35;3.38;;;;;;;19.18;62.54;102193.66;5057694;28;20111;-76
2021/07/22 09:00:11;;;;;;;9.10;3.85;;;;;;;19.02;63.46;102190.03;5056741;28;20493;-77
2021/07/22 09:02:37;;;;;;;9.85;4.32;;;;;;;18.90;63.02;102193.19;5074521;28;20373;-76
2021/07/22 09:05:05;;;;;;;7.00;3.97;;;;;;;18.73;63.63;102187.84;5063605;28;20036;-75
2021/07/22 09:07:31;;;;;;;10.05;3.92;;;;;;;18.68;63.17;102191.00;5052505;28;20047;-76
2021/07/22 09:10:09;;;;;;;6.78;3.70;;;;;;;18.90;65.12;102195.84;5089279;28;20030;-76
2021/07/22 09:12:37;;;;;;;4.95;3.70;;;;;;;19.02;67.04;102184.72;5091155;27;20091;-76
2021/07/22 09:15:04;;;;;;;5.13;3.78;;;;;;;19.11;64.49;102182.88;5073345;28;20039;-75
2021/07/22 09:17:30;;;;;;;5.53;3.75;;;;;;;19.42;69.42;102180.31;5074105;28;20811;-76
2021/07/22 09:19:56;;;;;;;8.95;3.65;;;;;;;19.50;63.21;102176.00;5089674;28;20154;-76
2021/07/22 09:22:42;;;;;;;7.13;3.60;;;;;;;19.88;61.00;102190.34;5070066;28;20110;-76
2021/07/22 09:25:10;;;;;;;9.02;3.53;;;;;;;20.11;62.77;102194.91;5063076;28;20098;-75
2021/07/22 09:27:42;;;;;;;8.40;3.20;;;;;;;20.09;60.04;102186.25;5070356;28;20155;-75
2021/07/22 09:30:17;;;;;;;6.38;3.33;;;;;;;20.00;61.35;102190.78;5072537;28;20103;-75
2021/07/22 09:32:45;;;;;;;5.40;3.45;;;;;;;19.81;59.48;102190.19;5056051;28;20035;-75
2021/07/22 09:35:16;;;;;;;6.28;3.08;;;;;;;19.70;60.28;102185.22;5091051;28;20058;-75
2021/07/22 09:37:46;;;;;;;5.57;3.75;;;;;;;19.67;60.60;102184.75;5071644;28;20059;-74
2021/07/22 09:40:16;;;;;;;7.63;3.70;;;;;;;19.76;60.13;102186.38;5074629;28;20036;-76
2021/07/22 09:42:47;;;;;;;6.90;3.85;;;;;;;19.69;60.84;102185.41;5075972;28;20039;-76
2021/07/22 09:45:14;;;;;;;8.23;3.40;;;;;;;19.88;60.82;102186.84;5056239;28;20031;-77
2021/07/22 09:47:40;;;;;;;9.30;3.67;;;;;;;19.82;61.44;102189.19;5060767;28;20109;-75
2021/07/22 09:50:20;;;;;;;6.38;3.40;;;;;;;19.70;58.46;102187.06;5092820;28;20480;-75
2021/07/22 09:52:48;;;;;;;4.72;3.22;;;;;;;19.71;59.93;102189.53;5091301;28;20032;-76
2021/07/22 09:55:22;;;;;;;4.18;3.13;;;;;;;19.71;59.05;102184.22;5072985;28;20046;-74
2021/07/22 09:57:52;;;;;;;5.72;3.58;;;;;;;19.79;64.64;102197.53;5044713;28;20560;-74
2021/07/22 10:00:17;;;;;;;5.20;3.20;;;;;;;19.84;63.97;102192.53;5055648;28;20035;-76
2021/07/22 10:02:43;;;;;;;7.05;3.00;;;;;;;19.97;60.17;102194.63;5071186;28;20035;-75
2021/07/22 10:05:10;;;;;;;6.03;3.42;;;;;;;19.83;58.64;102188.22;5088330;28;20035;-76
2021/07/22 10:07:40;;;;;;;5.43;3.00;;;;;;;19.72;63.74;102196.56;5084914;28;21122;-76
2021/07/22 10:10:06;;;;;;;5.40;3.13;;;;;;;19.69;61.29;102185.41;5056087;28;20861;-76
2021/07/22 10:12:33;;;;;;;5.97;3.83;;;;;;;19.68;64.01;102189.06;5107688;28;20035;-75
2021/07/22 10:15:02;;;;;;;6.05;3.08;;;;;;;19.71;61.34;102183.41;5089472;28;21504;-76
2021/07/22 10:17:34;;;;;;;6.80;3.05;;;;;;;19.98;62.89;102188.28;5072650;28;20052;-75
2021/07/22 10:20:03;;;;;;;8.68;3.30;;;;;;;20.14;59.07;102190.06;5071961;28;20027;-76
2021/07/22 10:22:31;;;;;;;3.90;2.88;;;;;;;20.25;59.53;102180.84;5071191;28;20042;-75
2021/07/22 10:24:57;;;;;;;6.32;3.13;;;;;;;20.34;64.94;102177.13;5072293;28;20085;-76
2021/07/22 10:27:24;;;;;;;5.65;3.00;;;;;;;20.28;65.70;102182.31;5056149;28;20177;-73
2021/07/22 10:29:49;;;;;;;6.43;3.03;;;;;;;20.30;65.01;102180.31;5087974;28;20496;-74
2021/07/22 10:32:25;;;;;;;6.63;2.85;;;;;;;20.12;58.73;102181.41;5068447;28;20110;-77
2021/07/22 10:34:53;;;;;;;6.38;3.10;;;;;;;20.09;57.93;102173.75;5071234;28;20439;-76
2021/07/22 10:37:20;;;;;;;4.28;2.97;;;;;;;20.11;59.11;102176.25;5070535;28;20039;-76
2021/07/22 10:40:09;;;;;;;4.97;3.00;;;;;;;20.12;60.08;102176.09;5063255;28;20462;-76
2021/07/22 10:42:48;;;;;;;4.63;3.28;;;;;;;20.27;58.45;102170.84;5056408;28;20032;-75
2021/07/22 10:45:20;;;;;;;4.97;3.25;;;;;;;20.28;60.60;102175.16;5055997;28;20446;-75
2021/07/22 10:48:07;;;;;;;5.85;3.08;;;;;;;20.12;60.03;102176.09;5066440;28;20516;-76
2021/07/22 10:50:54;;;;;;;5.03;3.40;;;;;;;19.96;58.95;102178.81;5079250;28;20093;-76
2021/07/22 10:53:42;;;;;;;7.65;3.72;;;;;;;19.96;58.52;102170.84;5071315;28;20389;-78
2021/07/22 10:56:26;;;;;;;5.78;3.05;;;;;;;19.97;58.40;102164.53;5047388;28;20039;-76
2021/07/22 10:58:58;;;;;;;4.30;3.33;;;;;;;20.01;60.22;102169.31;5088243;28;20032;-77
2021/07/22 11:01:49;;;;;;;5.72;3.30;;;;;;;20.22;59.48;102166.03;5057053;28;20039;-77
2021/07/22 11:04:17;;;;;;;7.97;3.13;;;;;;;20.21;58.04;102167.03;5052537;28;20141;-76
2021/07/22 11:06:58;;;;;;;6.40;3.45;;;;;;;20.21;57.98;102163.53;5070596;28;20072;-76
2021/07/22 11:09:58;;;;;;;3.90;3.50;;;;;;;20.14;57.89;102158.09;5050569;28;20046;-76
2021/07/22 11:12:42;;;;;;;3.30;3.00;;;;;;;20.09;60.72;102167.63;5054440;28;20051;-74
2021/07/22 11:15:09;;;;;;;5.32;3.47;;;;;;;20.13;57.61;102163.59;5089325;28;20042;-75
2021/07/22 11:17:35;;;;;;;5.28;3.80;;;;;;;20.08;56.87;102163.28;5070532;28;20515;-76
2021/07/22 11:20:19;;;;;;;5.32;3.25;;;;;;;20.19;56.10;102157.56;5076412;27;20506;-76
2021/07/22 11:22:46;;;;;;;3.40;2.58;;;;;;;20.44;60.00;102152.91;5054947;28;20063;-77
2021/07/22 11:25:13;;;;;;;8.35;3.30;;;;;;;20.67;57.50;102152.09;5083854;28;20058;-77